x

Great Slave Lake, North Arm (45150) Wave Buoy

9:00pm - Wed 28th Sep 2016 All times are UTC.

  • Sig Wave height 3.6ft
  • Peak Period 4s
  • Wind
    16mph, 20mph gusts
  • Air Temp 41°f
  • Sea Pressure 1022.4mb

More Historic Weather Station data

Upgrade to MSW Pro to gain access to the past 30 days of data for over 8000 Wavebouys and Weather Stations around the globe.

Join Pro

Comparision Forecast

View Surf forecast
   
Wed 09/28 9:00pm 3.5ft 4s 16 20 mph 1022.4mb 41f
8:00pm 4ft 5s 18 22 mph 1021.9mb 40f
7:00pm 5ft 5s 20 25 mph 1021.3mb 40f
5:00pm 5.5ft 6s 25 29 mph 1019.6mb 39f
6:00am 11ft 7s 36 45 mph 1006.4mb 43f
5:00am 10.5ft 7s 36 45 mph 1004.9mb 43f
4:00am  -   -  36
mph
- -
2:00am 6.5ft 5s 29 36 mph 1002.2mb 43f
1:00am 6ft 5s 29
mph
1001.8mb 43f
12:00am 5.5ft 7s 27 31 mph 1001.1mb 43f
Tue 09/27 11:00pm 5.5ft 7s 27 31 mph 1000.5mb 44f
10:00pm 6ft 7s 25 31 mph 999.9mb 45f
9:00pm 5.5ft 6s 25 31 mph 999.5mb 46f
8:00pm 5ft 6s 27 31 mph 999mb 46f
7:00pm 4.5ft 5s 25 31 mph 998.7mb 47f
6:00pm 3.5ft 5s 25 31 mph 998.4mb 47f
5:00pm 3.5ft 4s 20
mph
997.8mb 48f
4:00pm  -   -  18
mph
- -
3:00pm  -   -  20
mph
996.9mb 48f
2:00pm 2.5ft 14s 20 25 mph 996.2mb 49f
1:00pm 2ft 4s 13 18 mph 995.4mb 50f
12:00pm 2.5ft 4s 13 16 mph 995.3mb 50f
11:00am 3.5ft 4s 16 18 mph 995.9mb 49f
10:00am 3.5ft 5s 20 27 mph 996.6mb 50f
9:00am 4ft 5s 20 25 mph 996.8mb 48f
8:00am 4ft 4s 22 25 mph 998mb 48f
7:00am 3.5ft 5s 20 27 mph 999.2mb 48f
6:00am 4ft 5s 22 27 mph 1000.4mb 49f
5:00am 4ft 4s 22 27 mph 1001.7mb 49f
4:00am 3.5ft 4s 20 25 mph 1003mb 49f
2:00am 4ft 5s 20 22 mph 1005.4mb 48f
1:00am 4ft 4s 20 25 mph 1006.1mb 48f
12:00am 4.5ft 5s 22 27 mph 1006.8mb 49f
Mon 09/26 11:00pm 4.5ft 5s 22 27 mph 1007.2mb 49f
10:00pm 4.5ft 5s 22 27 mph 1008mb 48f
9:00pm 5ft 5s 22 27 mph 1008.4mb 48f
8:00pm 6ft 5s 22 27 mph 1009.6mb 48f
7:00pm 5.5ft 5s 25 27 mph 1010.3mb 48f
6:00pm 5.5ft 5s 25 29 mph 1011.2mb 47f
5:00pm 5ft 5s 25 29 mph 1012mb 47f
4:00pm 4ft 5s 22 29 mph 1012.7mb 47f
3:00pm 4.5ft 5s 22 27 mph 1013.2mb 47f
2:00pm 3.5ft 4s 22 25 mph 1013.8mb 47f
1:00pm 3ft 5s 20 25 mph 1014.6mb 47f
12:00pm 2.5ft 4s 18 20 mph 1014.8mb 48f
11:00am 2.5ft 3s 18 20 mph 1015mb 48f
10:00am 2ft 12s 16 18 mph 1015.5mb 48f
9:00am 1.3ft 13s 16 18 mph 1016.1mb 48f
8:00am 1ft 13s 11 13 mph 1016.6mb 48f
7:00am 0.7ft 2s 9
mph
1016.8mb 47f
6:00am 0.3ft 2s 9
mph
1017.2mb 48f
5:00am 0.3ft 2s 7 9 mph 1017.1mb 48f
4:00am 0.3ft 2s 7
mph
1017.2mb 48f
3:00am 0.3ft 2s 4
mph
1017.3mb 49f
2:00am 0.7ft 2s 7
mph
1017.7mb 49f
1:00am 0.7ft 3s 7 9 mph 1017.9mb 49f
12:00am 1ft 3s 4 7 mph 1017.6mb 50f
Sun 09/25 11:00pm 1ft 4s 4 7 mph 1017.5mb 49f
10:00pm 1.3ft 4s 7
mph
1017.3mb 49f
9:00pm 1.6ft 4s 7 9 mph 1017.3mb 49f
8:00pm 2ft 4s 11 13 mph 1017.2mb 49f
7:00pm 2.5ft 4s 13 16 mph 1016.8mb 48f
6:00pm 3ft 5s 13 18 mph 1016.3mb 47f
5:00pm 3.5ft 5s 16 20 mph 1016mb 47f
4:00pm 3.5ft 5s 18 20 mph 1015.3mb 47f
3:00pm  -   -  20
mph
1014.6mb 47f
2:00pm 4.5ft 5s 20 25 mph 1013.8mb 47f
12:00pm 4ft 5s 20 27 mph 1012.3mb 48f
11:00am 4ft 4s 22 27 mph 1012mb 48f
10:00am 3.5ft 4s 22 29 mph 1011.5mb 49f
9:00am 2.5ft 4s 20 25 mph 1010.8mb 50f
7:00am 2.5ft 4s 13
mph
1010mb 51f
5:00am 2.5ft 4s 22 27 mph 1008.8mb 51f
4:00am 2ft 14s 22 27 mph 1008mb 52f
3:00am 1.6ft 5s 11 13 mph - -
2:00am 1.6ft 14s 9 11 mph 1007.4mb 52f
1:00am 2ft 5s 11 13 mph 1006.5mb 53f
12:00am 2.5ft 5s 9 11 mph 1005.6mb 53f
Sat 09/24 11:00pm 2.5ft 4s 9 13 mph 1005.1mb 52f